Time;durP1;ratioP1;P1;durP2;ratioP2;P2;SDS_P1;SDS_P2;PMS_P1;PMS_P2;Temp;Humidity;BMP_temperature;BMP_pressure;BME280_temperature;BME280_humidity;BME280_pressure;Samples;Min_cycle;Max_cycle;Signal;HPM_P1;HPM_P2
2023/08/12 00:00:12;;;;;;;6.05;5.53;;;18.10;99.90;;;;;;5084531;28;19916;-39
2023/08/12 00:02:42;;;;;;;6.18;5.57;;;18.10;99.90;;;;;;5078480;28;20123;-39
2023/08/12 00:05:10;;;;;;;6.07;5.40;;;17.80;99.90;;;;;;5082610;28;20024;-40
2023/08/12 00:07:36;;;;;;;5.22;4.40;;;17.80;99.90;;;;;;5082308;28;20115;-40
2023/08/12 00:10:04;;;;;;;5.90;4.95;;;17.80;99.90;;;;;;5085857;28;20788;-41
2023/08/12 00:12:31;;;;;;;8.02;4.88;;;17.90;99.90;;;;;;5081249;28;20028;-36
2023/08/12 00:14:56;;;;;;;4.53;4.17;;;17.90;99.90;;;;;;5083309;28;20444;-33
2023/08/12 00:17:22;;;;;;;5.53;4.55;;;17.90;99.90;;;;;;5084578;28;20027;-30
2023/08/12 00:19:48;;;;;;;6.32;4.68;;;17.80;99.90;;;;;;5086634;28;20504;-32
2023/08/12 00:22:14;;;;;;;6.28;4.70;;;17.70;99.90;;;;;;5086529;28;20032;-32
2023/08/12 00:24:40;;;;;;;5.70;4.90;;;17.80;99.90;;;;;;5085226;28;20131;-32
2023/08/12 00:27:06;;;;;;;5.63;4.53;;;17.80;99.90;;;;;;5086927;28;20036;-34
2023/08/12 00:29:32;;;;;;;8.27;4.90;;;17.70;99.90;;;;;;5088322;28;20733;-32
2023/08/12 00:31:58;;;;;;;5.65;5.10;;;17.60;99.90;;;;;;5084159;28;20028;-32
2023/08/12 00:34:24;;;;;;;6.50;4.35;;;17.50;99.90;;;;;;5086678;28;20051;-32
2023/08/12 00:36:49;;;;;;;6.90;5.00;;;17.40;99.90;;;;;;5084756;28;20028;-35
2023/08/12 00:39:15;;;;;;;5.15;4.57;;;17.40;99.90;;;;;;5077296;28;20644;-32
2023/08/12 00:41:41;;;;;;;5.82;4.43;;;17.40;99.90;;;;;;5083277;28;20047;-34
2023/08/12 00:44:06;;;;;;;5.50;4.15;;;17.50;99.90;;;;;;5083888;28;20082;-32
2023/08/12 00:46:33;;;;;;;4.70;3.95;;;17.40;99.90;;;;;;5070988;28;20032;-32
2023/08/12 00:48:59;;;;;;;4.53;4.13;;;17.40;99.90;;;;;;5084883;28;20129;-31
2023/08/12 00:51:25;;;;;;;4.60;4.20;;;17.30;99.90;;;;;;5085294;28;20501;-31
2023/08/12 00:53:51;;;;;;;4.28;3.88;;;17.30;99.90;;;;;;5078705;28;20108;-34
2023/08/12 00:56:17;;;;;;;4.18;3.78;;;17.20;99.90;;;;;;5075514;28;20170;-33
2023/08/12 00:58:43;;;;;;;3.85;3.45;;;17.20;99.90;;;;;;5082517;28;20520;-36
2023/08/12 01:01:10;;;;;;;3.88;3.58;;;17.30;99.90;;;;;;5083576;28;20799;-42
2023/08/12 01:03:37;;;;;;;5.93;3.50;;;17.30;99.90;;;;;;5085350;28;20039;-41
2023/08/12 01:06:03;;;;;;;4.28;3.28;;;17.10;99.90;;;;;;5086230;28;20028;-42
2023/08/12 01:08:31;;;;;;;4.20;3.10;;;17.00;99.90;;;;;;5086922;28;20516;-42
2023/08/12 01:11:06;;;;;;;3.30;3.00;;;16.80;99.90;;;;;;5085085;28;20028;-40
2023/08/12 01:13:49;;;;;;;3.20;3.00;;;16.70;99.90;;;;;;5082358;28;20036;-42
2023/08/12 01:16:18;;;;;;;3.20;3.00;;;16.60;99.90;;;;;;5083020;28;20028;-42
2023/08/12 01:18:44;;;;;;;2.67;2.50;;;16.60;99.90;;;;;;5087946;28;20593;-40
2023/08/12 01:21:15;;;;;;;3.03;2.72;;;16.70;99.90;;;;;;5080643;28;20027;-36
2023/08/12 01:23:41;;;;;;;3.40;3.10;;;16.70;99.90;;;;;;5076037;28;20100;-36
2023/08/12 01:26:07;;;;;;;4.22;3.67;;;16.80;99.90;;;;;;5075359;28;20036;-37
2023/08/12 01:28:32;;;;;;;5.05;3.90;;;16.70;99.90;;;;;;5075767;28;22027;-35
2023/08/12 01:31:11;;;;;;;4.13;3.35;;;16.50;99.90;;;;;;5073068;28;20047;-33
2023/08/12 01:33:49;;;;;;;4.03;3.53;;;16.50;99.90;;;;;;5075089;28;20681;-39
2023/08/12 01:36:17;;;;;;;4.72;3.08;;;16.50;99.90;;;;;;5075216;28;20484;-36
2023/08/12 01:38:44;;;;;;;4.03;3.15;;;16.40;99.90;;;;;;5074447;28;20081;-35
2023/08/12 01:41:12;;;;;;;3.95;3.20;;;16.40;99.90;;;;;;5075257;28;20028;-31
2023/08/12 01:43:38;;;;;;;3.70;3.30;;;16.40;99.90;;;;;;5072627;28;20027;-33
2023/08/12 01:46:04;;;;;;;3.42;3.10;;;16.50;99.90;;;;;;5073328;28;20154;-34
2023/08/12 01:48:29;;;;;;;4.10;3.15;;;16.50;99.90;;;;;;5073000;28;20060;-35
2023/08/12 01:50:55;;;;;;;3.42;3.10;;;16.50;99.90;;;;;;5074601;28;20038;-37
2023/08/12 01:53:20;;;;;;;5.50;3.20;;;16.50;99.90;;;;;;5075277;28;20032;-34
2023/08/12 01:55:46;;;;;;;4.63;3.70;;;16.50;99.90;;;;;;5080954;28;20044;-33
2023/08/12 01:58:12;;;;;;;5.32;2.92;;;16.50;99.90;;;;;;5083997;28;20032;-32
2023/08/12 02:00:37;;;;;;;4.40;3.40;;;16.40;99.90;;;;;;5082046;28;20050;-32
2023/08/12 02:03:03;;;;;;;3.38;2.88;;;16.30;99.90;;;;;;5084249;28;20091;-33
2023/08/12 02:05:29;;;;;;;3.97;3.13;;;16.20;99.90;;;;;;5080068;28;20017;-33
2023/08/12 02:07:55;;;;;;;3.72;3.30;;;16.10;99.90;;;;;;5087127;28;20020;-35
2023/08/12 02:10:20;;;;;;;4.07;3.47;;;16.20;99.90;;;;;;5080959;28;20125;-33
2023/08/12 02:12:46;;;;;;;3.83;3.20;;;16.10;99.90;;;;;;5088140;28;20028;-32
2023/08/12 02:15:12;;;;;;;3.65;3.15;;;15.80;99.90;;;;;;5081051;28;20055;-33
2023/08/12 02:17:37;;;;;;;3.17;2.83;;;15.70;99.90;;;;;;5082393;28;20028;-33
2023/08/12 02:20:04;;;;;;;2.83;2.63;;;15.60;99.90;;;;;;5087484;28;20028;-35
2023/08/12 02:22:29;;;;;;;4.07;2.85;;;15.60;99.90;;;;;;5070194;28;20413;-34
2023/08/12 02:24:55;;;;;;;3.00;2.80;;;15.70;99.90;;;;;;5082563;28;20023;-32
2023/08/12 02:27:21;;;;;;;5.07;3.22;;;15.60;99.90;;;;;;5082220;28;20489;-31
2023/08/12 02:29:46;;;;;;;3.05;2.75;;;15.70;99.90;;;;;;5081475;28;20441;-33
2023/08/12 02:32:12;;;;;;;4.70;3.67;;;15.80;99.90;;;;;;5081351;28;20591;-33
2023/08/12 02:34:38;;;;;;;3.28;2.80;;;15.80;99.90;;;;;;5085520;28;20112;-38
2023/08/12 02:37:03;;;;;;;3.92;2.83;;;15.90;99.90;;;;;;5087273;28;20481;-41
2023/08/12 02:39:29;;;;;;;3.33;3.03;;;15.90;99.90;;;;;;5085205;28;20036;-39
2023/08/12 02:41:54;;;;;;;3.17;2.88;;;15.90;99.90;;;;;;5085351;28;20031;-41
2023/08/12 02:44:20;;;;;;;4.90;3.10;;;15.80;99.90;;;;;;5085646;28;20521;-41
2023/08/12 02:46:46;;;;;;;3.45;3.15;;;15.80;99.90;;;;;;5084871;28;20028;-39
2023/08/12 02:49:11;;;;;;;3.85;3.13;;;15.80;99.90;;;;;;5087267;28;20070;-40
2023/08/12 02:51:37;;;;;;;3.78;2.95;;;15.80;99.90;;;;;;5084371;28;20358;-35
2023/08/12 02:54:02;;;;;;;3.22;2.92;;;15.90;99.90;;;;;;5085135;28;20032;-40
2023/08/12 02:56:28;;;;;;;3.45;2.92;;;15.90;99.90;;;;;;5079862;28;20093;-40
2023/08/12 02:58:54;;;;;;;4.28;3.15;;;15.90;99.90;;;;;;5083812;28;20109;-39
2023/08/12 03:01:21;;;;;;;2.47;2.30;;;15.90;99.90;;;;;;5081480;28;20028;-39
2023/08/12 03:03:46;;;;;;;2.40;2.20;;;15.80;99.90;;;;;;5081746;28;20024;-41
2023/08/12 03:06:12;;;;;;;2.20;2.10;;;15.80;99.90;;;;;;5080514;28;20036;-40
2023/08/12 03:08:37;;;;;;;2.60;2.40;;;15.80;99.90;;;;;;5082578;28;20419;-36
2023/08/12 03:11:03;;;;;;;2.33;2.05;;;15.80;99.90;;;;;;5082310;28;20094;-41
2023/08/12 03:13:29;;;;;;;3.15;2.67;;;15.80;99.90;;;;;;5080090;28;20055;-41
2023/08/12 03:15:55;;;;;;;3.42;2.97;;;15.70;99.90;;;;;;5064044;28;20032;-39
2023/08/12 03:18:21;;;;;;;3.30;3.05;;;15.70;99.90;;;;;;5085545;28;20024;-41
2023/08/12 03:20:47;;;;;;;3.95;3.03;;;15.70;99.90;;;;;;5082024;28;20051;-41
2023/08/12 03:23:13;;;;;;;3.13;2.80;;;15.80;99.90;;;;;;5083756;28;20059;-41
2023/08/12 03:25:38;;;;;;;4.13;3.17;;;15.70;99.90;;;;;;5084303;28;20028;-39
2023/08/12 03:28:04;;;;;;;3.30;2.95;;;15.70;99.90;;;;;;5083531;28;20039;-40
2023/08/12 03:30:30;;;;;;;3.10;2.80;;;15.50;99.90;;;;;;5085861;28;20032;-39
2023/08/12 03:32:55;;;;;;;2.58;2.38;;;15.50;99.90;;;;;;5084276;28;20158;-41
2023/08/12 03:35:21;;;;;;;2.67;1.60;;;15.10;99.90;;;;;;5080666;28;20058;-41
2023/08/12 03:37:47;;;;;;;1.80;1.70;;;14.90;99.90;;;;;;5082014;28;20110;-41
2023/08/12 03:40:12;;;;;;;1.98;1.85;;;15.00;99.90;;;;;;5077857;28;20472;-38
2023/08/12 03:42:38;;;;;;;2.88;2.67;;;15.10;99.90;;;;;;5084010;28;20020;-40
2023/08/12 03:45:04;;;;;;;3.83;2.80;;;15.10;99.90;;;;;;5081407;28;20028;-41
2023/08/12 03:47:30;;;;;;;2.70;2.50;;;15.20;99.90;;;;;;5081585;28;20101;-39
2023/08/12 03:49:55;;;;;;;2.15;2.05;;;15.30;99.90;;;;;;5087952;28;20131;-41
2023/08/12 03:52:21;;;;;;;3.33;2.20;;;15.30;99.90;;;;;;5084198;28;20380;-41
2023/08/12 03:54:46;;;;;;;5.07;2.85;;;15.30;99.90;;;;;;5080174;28;20143;-41
2023/08/12 03:57:12;;;;;;;2.40;2.10;;;15.20;99.90;;;;;;5081928;28;20028;-41
2023/08/12 03:59:38;;;;;;;2.85;2.03;;;15.10;99.90;;;;;;5086781;28;20069;-40
2023/08/12 04:02:03;;;;;;;2.45;2.13;;;15.10;99.90;;;;;;5084133;28;20028;-41
2023/08/12 04:04:29;;;;;;;2.10;1.90;;;15.10;99.90;;;;;;5077709;28;20481;-40
2023/08/12 04:06:55;;;;;;;1.83;1.73;;;15.20;99.90;;;;;;5082985;28;20040;-40
2023/08/12 04:09:21;;;;;;;3.75;2.78;;;15.00;99.90;;;;;;5083477;28;20024;-40
2023/08/12 04:11:47;;;;;;;2.30;1.90;;;15.00;99.90;;;;;;5081445;28;20498;-35
2023/08/12 04:14:13;;;;;;;3.72;2.22;;;15.00;99.90;;;;;;5081655;28;20028;-38
2023/08/12 04:16:39;;;;;;;2.63;2.30;;;15.00;99.90;;;;;;5082484;28;20024;-39
2023/08/12 04:19:05;;;;;;;3.95;2.58;;;15.00;99.90;;;;;;5066974;28;20056;-40
2023/08/12 04:21:31;;;;;;;2.80;2.53;;;15.10;99.90;;;;;;5082425;28;20122;-41
2023/08/12 04:23:56;;;;;;;3.17;2.80;;;15.10;99.90;;;;;;5083090;28;20024;-41
2023/08/12 04:26:22;;;;;;;4.07;3.17;;;15.10;99.90;;;;;;5079963;28;20040;-39
2023/08/12 04:28:48;;;;;;;3.35;2.97;;;15.10;99.90;;;;;;5081163;28;20028;-40
2023/08/12 04:31:13;;;;;;;5.10;3.10;;;15.10;99.90;;;;;;5077155;28;20043;-41
2023/08/12 04:33:39;;;;;;;4.53;2.92;;;15.10;99.90;;;;;;5085051;28;20044;-33
2023/08/12 04:36:05;;;;;;;2.75;2.47;;;15.10;99.90;;;;;;5084523;28;20032;-34
2023/08/12 04:38:31;;;;;;;2.40;2.20;;;15.10;99.90;;;;;;5087936;28;20032;-37
2023/08/12 04:40:57;;;;;;;2.20;2.10;;;15.00;99.90;;;;;;5083839;28;20477;-32
2023/08/12 04:43:22;;;;;;;1.90;1.80;;;15.00;99.90;;;;;;5085757;28;20055;-34
2023/08/12 04:45:48;;;;;;;1.80;1.70;;;14.90;99.90;;;;;;5083090;28;20485;-34
2023/08/12 04:48:14;;;;;;;1.95;1.85;;;14.80;99.90;;;;;;5090827;28;20389;-32
2023/08/12 04:50:42;;;;;;;2.55;1.70;;;14.90;99.90;;;;;;5085073;28;20044;-32
2023/08/12 04:53:07;;;;;;;2.40;2.20;;;15.00;99.90;;;;;;5085392;28;20117;-40
2023/08/12 04:55:35;;;;;;;2.47;2.28;;;15.10;99.90;;;;;;5089260;28;20517;-39
2023/08/12 04:58:01;;;;;;;2.72;2.50;;;15.20;99.90;;;;;;5086963;28;20055;-40
2023/08/12 05:00:27;;;;;;;3.55;2.30;;;15.40;99.90;;;;;;5084040;28;20060;-40
2023/08/12 05:02:53;;;;;;;3.88;2.50;;;15.50;99.90;;;;;;5085893;28;20401;-40
2023/08/12 05:05:19;;;;;;;2.53;2.33;;;15.60;99.90;;;;;;5082884;28;20028;-39
2023/08/12 05:07:48;;;;;;;2.83;2.58;;;15.70;99.90;;;;;;5080236;28;20036;-40
2023/08/12 05:10:17;;;;;;;3.53;2.47;;;15.70;99.90;;;;;;5084594;28;20047;-39
2023/08/12 05:12:47;;;;;;;3.08;2.78;;;15.70;99.90;;;;;;5085708;28;20046;-40
2023/08/12 05:15:12;;;;;;;3.58;2.60;;;15.70;99.90;;;;;;5084341;28;20036;-41
2023/08/12 05:17:38;;;;;;;2.75;2.55;;;15.80;99.90;;;;;;5083438;28;20032;-38
2023/08/12 05:20:04;;;;;;;3.00;2.70;;;15.80;99.90;;;;;;5085697;28;20024;-37
2023/08/12 05:22:30;;;;;;;2.75;2.53;;;15.90;99.90;;;;;;5085524;28;20035;-41
2023/08/12 05:24:55;;;;;;;2.90;2.70;;;16.00;99.90;;;;;;5081535;28;20024;-40
2023/08/12 05:27:21;;;;;;;4.03;2.70;;;16.00;99.90;;;;;;5085176;28;20036;-40
2023/08/12 05:29:47;;;;;;;3.33;2.85;;;16.00;99.90;;;;;;5083286;28;20024;-40
2023/08/12 05:32:12;;;;;;;5.80;2.90;;;16.10;99.90;;;;;;5084898;28;20032;-39
2023/08/12 05:34:38;;;;;;;3.35;3.00;;;16.10;99.90;;;;;;5083822;28;20031;-40
2023/08/12 05:37:03;;;;;;;3.42;3.13;;;16.10;99.90;;;;;;5085386;28;20536;-40
2023/08/12 05:39:29;;;;;;;5.05;3.13;;;16.10;99.90;;;;;;5085856;28;20045;-40
2023/08/12 05:41:55;;;;;;;4.88;3.30;;;16.10;99.90;;;;;;5083613;28;20028;-37
2023/08/12 05:44:20;;;;;;;3.90;3.50;;;16.20;99.90;;;;;;5068467;28;20024;-41
2023/08/12 05:46:46;;;;;;;4.32;3.72;;;16.30;99.90;;;;;;5084353;28;20493;-41
2023/08/12 05:49:12;;;;;;;4.25;3.53;;;16.50;99.90;;;;;;5075669;28;20035;-41
2023/08/12 05:51:38;;;;;;;4.50;3.80;;;16.60;99.90;;;;;;5075194;28;20558;-34
2023/08/12 05:54:04;;;;;;;5.68;3.60;;;16.80;99.90;;;;;;5072661;28;21039;-36
2023/08/12 05:56:30;;;;;;;7.63;3.95;;;16.90;99.90;;;;;;5072495;28;20040;-41
2023/08/12 05:58:56;;;;;;;5.35;4.50;;;17.10;99.90;;;;;;5073524;28;22222;-38
2023/08/12 06:01:21;;;;;;;4.78;4.28;;;17.20;99.90;;;;;;5073970;28;20043;-41
2023/08/12 06:03:47;;;;;;;9.15;4.35;;;17.40;99.90;;;;;;5057723;28;20032;-31
2023/08/12 06:06:12;;;;;;;4.35;3.95;;;17.40;99.90;;;;;;5084593;28;20028;-31
2023/08/12 06:08:38;;;;;;;5.30;4.35;;;17.50;99.90;;;;;;5086828;28;20624;-32
2023/08/12 06:11:04;;;;;;;7.53;4.78;;;17.60;99.90;;;;;;5083938;28;20597;-33
2023/08/12 06:13:29;;;;;;;5.05;4.30;;;17.80;99.90;;;;;;5073830;28;20024;-31
2023/08/12 06:15:55;;;;;;;5.05;4.55;;;18.00;99.90;;;;;;5087686;28;20028;-31
2023/08/12 06:18:20;;;;;;;4.68;4.25;;;18.20;99.90;;;;;;5080315;28;20054;-30
2023/08/12 06:20:46;;;;;;;5.95;5.28;;;18.50;99.90;;;;;;5085709;28;20020;-32
2023/08/12 06:23:12;;;;;;;5.88;5.28;;;18.70;99.90;;;;;;5065201;28;20106;-32
2023/08/12 06:25:38;;;;;;;5.60;5.10;;;18.90;99.90;;;;;;5084128;28;20482;-31
2023/08/12 06:28:04;;;;;;;5.13;4.50;;;19.10;99.90;;;;;;5082957;28;20020;-34
2023/08/12 06:30:30;;;;;;;4.43;4.03;;;19.30;99.90;;;;;;5085424;28;20486;-31
2023/08/12 06:32:57;;;;;;;5.90;4.90;;;19.60;99.90;;;;;;5085082;28;20089;-32
2023/08/12 06:35:22;;;;;;;5.22;4.53;;;19.80;99.90;;;;;;5084831;28;20118;-31
2023/08/12 06:37:48;;;;;;;6.40;5.15;;;20.00;99.90;;;;;;5087421;28;20115;-31
2023/08/12 06:40:13;;;;;;;6.03;4.78;;;20.10;99.90;;;;;;5085431;28;20676;-31
2023/08/12 06:42:39;;;;;;;7.25;4.88;;;20.20;99.90;;;;;;5081966;28;20140;-32
2023/08/12 06:45:05;;;;;;;7.13;5.13;;;20.30;99.90;;;;;;5080081;28;20074;-33
2023/08/12 06:47:31;;;;;;;5.32;4.75;;;20.20;99.90;;;;;;5083260;28;20525;-31
2023/08/12 06:49:56;;;;;;;5.57;5.00;;;20.30;99.90;;;;;;5086081;28;20118;-30
2023/08/12 06:52:22;;;;;;;5.25;4.55;;;20.30;99.90;;;;;;5084293;28;20497;-32
2023/08/12 06:54:48;;;;;;;4.70;4.20;;;20.30;99.90;;;;;;5068736;28;20393;-31
2023/08/12 06:57:13;;;;;;;5.72;4.85;;;20.30;99.90;;;;;;5072739;28;20092;-34
2023/08/12 06:59:39;;;;;;;5.93;4.70;;;20.40;99.90;;;;;;5081993;28;20027;-32
2023/08/12 07:02:06;;;;;;;5.03;4.53;;;20.50;99.90;;;;;;5080890;28;20551;-34
2023/08/12 07:04:32;;;;;;;5.03;4.55;;;20.60;99.90;;;;;;5081264;28;20028;-31
2023/08/12 07:06:57;;;;;;;5.38;4.50;;;20.60;99.90;;;;;;5082778;28;20048;-33
2023/08/12 07:09:23;;;;;;;4.90;4.40;;;20.80;99.90;;;;;;5082458;28;20919;-31
2023/08/12 07:11:48;;;;;;;4.13;3.72;;;20.90;99.90;;;;;;5083028;28;20748;-31
2023/08/12 07:14:14;;;;;;;5.05;4.55;;;21.10;99.90;;;;;;5087793;28;20060;-30
2023/08/12 07:16:40;;;;;;;5.97;4.15;;;21.10;99.90;;;;;;5085911;28;20035;-32
2023/08/12 07:19:05;;;;;;;4.32;3.90;;;21.20;99.90;;;;;;5086222;28;20031;-30
2023/08/12 07:21:31;;;;;;;4.93;4.20;;;21.30;99.90;;;;;;5082865;28;20045;-29
2023/08/12 07:23:56;;;;;;;4.00;3.60;;;21.40;99.90;;;;;;5085434;28;20115;-30
2023/08/12 07:26:22;;;;;;;4.03;3.63;;;21.60;99.90;;;;;;5085640;28;20545;-30
2023/08/12 07:28:47;;;;;;;4.28;3.88;;;21.80;99.90;;;;;;5086886;28;20104;-30
2023/08/12 07:31:13;;;;;;;4.70;4.00;;;21.80;99.90;;;;;;5082162;28;20048;-32
2023/08/12 07:33:39;;;;;;;4.70;4.30;;;21.80;99.90;;;;;;5083198;28;20095;-31
2023/08/12 07:36:05;;;;;;;4.10;3.70;;;21.90;99.90;;;;;;5079399;28;20401;-32
2023/08/12 07:38:31;;;;;;;5.15;3.70;;;22.10;99.90;;;;;;5081881;28;20040;-34
2023/08/12 07:40:56;;;;;;;6.20;4.45;;;22.30;99.90;;;;;;5083247;28;20109;-31
2023/08/12 07:43:22;;;;;;;4.40;4.07;;;22.40;99.90;;;;;;5086515;28;20494;-30
2023/08/12 07:45:52;;;;;;;3.78;3.40;;;22.50;99.90;;;;;;5085816;28;20028;-30
2023/08/12 07:48:18;;;;;;;4.40;4.00;;;22.60;99.90;;;;;;5083529;28;20397;-32
2023/08/12 07:50:44;;;;;;;4.00;3.70;;;22.70;99.90;;;;;;5079881;28;20116;-34
2023/08/12 07:53:10;;;;;;;4.75;3.75;;;22.80;99.90;;;;;;5086674;28;20110;-34
2023/08/12 07:55:35;;;;;;;5.88;3.92;;;22.90;99.90;;;;;;5084873;28;20580;-31
2023/08/12 07:58:01;;;;;;;4.45;4.05;;;22.90;99.90;;;;;;5084477;28;20028;-35
2023/08/12 08:00:26;;;;;;;5.80;4.13;;;22.90;99.90;;;;;;5086201;28;20058;-32
2023/08/12 08:02:52;;;;;;;4.90;4.10;;;23.00;99.90;;;;;;5085914;28;20127;-41
2023/08/12 08:05:18;;;;;;;4.90;4.22;;;22.90;99.90;;;;;;5081270;28;20020;-41
2023/08/12 08:07:43;;;;;;;4.47;4.07;;;23.00;99.90;;;;;;5078806;28;20057;-41
2023/08/12 08:10:10;;;;;;;4.22;3.83;;;23.20;99.90;;;;;;5086757;28;20511;-40
2023/08/12 08:12:35;;;;;;;5.03;4.00;;;23.40;99.90;;;;;;5083678;28;20043;-41
2023/08/12 08:15:03;;;;;;;4.13;3.83;;;23.60;99.90;;;;;;5068977;28;20481;-41
2023/08/12 08:17:29;;;;;;;5.13;4.63;;;23.70;99.90;;;;;;5068931;28;20020;-41
2023/08/12 08:19:54;;;;;;;5.15;3.78;;;23.80;99.90;;;;;;5079603;28;20362;-41
2023/08/12 08:22:20;;;;;;;3.92;3.53;;;23.70;99.90;;;;;;5077646;28;20028;-38
2023/08/12 08:24:45;;;;;;;4.45;3.90;;;23.70;99.90;;;;;;5079799;28;20048;-38
2023/08/12 08:27:11;;;;;;;4.88;3.67;;;23.70;99.90;;;;;;5079370;28;20036;-41
2023/08/12 08:29:37;;;;;;;4.80;3.60;;;23.70;99.90;;;;;;5084240;28;20039;-41
2023/08/12 08:32:02;;;;;;;5.60;3.58;;;23.90;99.90;;;;;;5078671;28;20044;-37
2023/08/12 08:34:28;;;;;;;4.43;3.90;;;23.90;99.90;;;;;;5079680;28;20040;-41
2023/08/12 08:36:54;;;;;;;4.25;3.63;;;24.00;99.90;;;;;;5083368;28;20043;-41
2023/08/12 08:39:21;;;;;;;3.83;3.42;;;24.00;99.90;;;;;;5067563;28;20099;-40
2023/08/12 08:41:48;;;;;;;4.78;4.10;;;23.90;99.90;;;;;;5082516;28;20079;-40
2023/08/12 08:44:15;;;;;;;4.55;3.70;;;23.90;99.90;;;;;;5068799;28;20508;-39
2023/08/12 08:46:41;;;;;;;4.20;3.80;;;23.90;99.90;;;;;;5084625;28;20031;-39
2023/08/12 08:49:09;;;;;;;4.13;3.72;;;23.90;99.90;;;;;;5082602;28;20129;-40
2023/08/12 08:51:35;;;;;;;5.63;3.60;;;24.00;99.90;;;;;;5082354;28;20035;-42
2023/08/12 08:54:04;;;;;;;3.92;3.55;;;24.00;99.90;;;;;;5084909;28;20032;-39
2023/08/12 08:56:31;;;;;;;4.20;3.80;;;24.10;99.90;;;;;;5084203;28;20044;-40
2023/08/12 08:58:57;;;;;;;4.75;4.05;;;24.10;99.90;;;;;;5082269;28;20420;-42
2023/08/12 09:01:23;;;;;;;4.30;3.90;;;24.10;99.90;;;;;;5080515;28;20036;-42
2023/08/12 09:03:52;;;;;;;5.32;4.18;;;24.10;99.90;;;;;;5082946;28;20026;-41
2023/08/12 09:06:20;;;;;;;4.07;3.67;;;24.00;99.90;;;;;;5080094;28;20028;-41
2023/08/12 09:08:47;;;;;;;;;;;24.00;99.90;;;;;;5081044;28;20032;-41
2023/08/12 09:11:14;;;;;;;3.92;3.60;;;24.00;99.90;;;;;;5083501;28;19915;-41
2023/08/12 09:13:39;;;;;;;5.80;3.80;;;24.00;99.90;;;;;;5060124;28;20034;-40
2023/08/12 09:16:05;;;;;;;4.90;4.13;;;24.30;99.90;;;;;;5081098;28;20028;-37
2023/08/12 09:18:31;;;;;;;4.15;3.75;;;24.80;99.90;;;;;;5083224;28;20437;-41
2023/08/12 09:20:57;;;;;;;5.15;4.10;;;24.90;99.90;;;;;;5086629;28;20461;-41
2023/08/12 09:23:23;;;;;;;4.50;4.10;;;25.10;99.90;;;;;;5084682;28;20036;-40
2023/08/12 09:25:48;;;;;;;4.22;3.53;;;25.10;99.90;;;;;;5082981;28;20086;-41
2023/08/12 09:28:15;;;;;;;4.05;3.60;;;25.30;99.90;;;;;;5086788;28;20439;-42
2023/08/12 09:30:40;;;;;;;4.72;3.95;;;25.70;99.90;;;;;;5087108;28;20047;-39
2023/08/12 09:33:09;;;;;;;4.25;3.85;;;26.20;99.90;;;;;;5079546;28;21762;-38
2023/08/12 09:35:40;;;;;;;4.50;3.92;;;26.40;99.90;;;;;;5066344;28;20032;-41
2023/08/12 09:38:10;;;;;;;5.43;3.67;;;26.50;99.90;;;;;;5083918;28;20942;-40
2023/08/12 09:40:36;;;;;;;4.25;3.85;;;26.80;99.90;;;;;;5086369;28;20514;-37
2023/08/12 09:43:03;;;;;;;4.22;3.92;;;26.80;99.90;;;;;;5084570;28;20043;-39
2023/08/12 09:45:31;;;;;;;3.97;3.55;;;26.70;99.90;;;;;;5085393;28;20016;-41
2023/08/12 09:47:57;;;;;;;;;;;26.30;99.90;;;;;;5086871;28;20055;-40
2023/08/12 09:50:24;;;;;;;3.65;3.35;;;26.50;99.90;;;;;;5085763;28;20373;-41
2023/08/12 09:52:51;;;;;;;4.25;3.85;;;26.90;99.90;;;;;;5087231;28;20038;-41
2023/08/12 09:55:18;;;;;;;4.35;3.95;;;26.80;99.90;;;;;;5082893;28;20055;-40
2023/08/12 09:57:47;;;;;;;3.75;3.35;;;26.80;99.90;;;;;;5085645;28;20032;-41
2023/08/12 10:00:16;;;;;;;5.07;3.70;;;26.80;99.90;;;;;;5082233;28;20035;-41
2023/08/12 10:02:46;;;;;;;4.32;3.50;;;26.90;99.90;;;;;;5084659;28;20981;-40
2023/08/12 10:05:26;;;;;;;4.00;3.60;;;27.30;99.90;;;;;;5085629;28;20043;-40
2023/08/12 10:07:54;;;;;;;3.67;3.38;;;27.40;99.90;;;;;;5087408;28;20409;-41
2023/08/12 10:10:22;;;;;;;3.63;3.33;;;27.30;99.90;;;;;;5083897;28;20118;-39
2023/08/12 10:12:48;;;;;;;4.50;4.00;;;27.30;99.90;;;;;;5086651;28;20484;-39
2023/08/12 10:15:14;;;;;;;5.75;4.07;;;27.60;99.90;;;;;;5071063;28;20035;-39
2023/08/12 10:17:41;;;;;;;4.20;3.83;;;27.60;99.90;;;;;;5088029;28;20118;-38
2023/08/12 10:20:08;;;;;;;4.85;3.90;;;27.40;99.90;;;;;;5086173;28;20150;-40
2023/08/12 10:22:36;;;;;;;6.03;3.97;;;27.20;99.90;;;;;;5071402;28;20032;-41
2023/08/12 10:25:03;;;;;;;4.68;3.72;;;27.20;99.90;;;;;;5084931;28;20481;-32
2023/08/12 10:27:29;;;;;;;;;;;27.20;99.90;;;;;;5084665;28;20032;-32
2023/08/12 10:29:58;;;;;;;5.55;3.85;;;27.20;99.90;;;;;;5084358;28;20051;-33
2023/08/12 10:32:25;;;;;;;4.18;3.55;;;27.30;99.90;;;;;;5085678;28;20123;-32
2023/08/12 10:34:57;;;;;;;3.47;3.17;;;27.30;99.90;;;;;;5087014;28;20053;-31
2023/08/12 10:37:25;;;;;;;5.40;3.78;;;27.80;99.90;;;;;;5083498;28;20036;-36
2023/08/12 10:39:53;;;;;;;4.38;3.60;;;28.00;99.90;;;;;;5082747;28;20123;-35
2023/08/12 10:42:42;;;;;;;3.55;3.15;;;28.20;99.90;;;;;;5085508;28;20032;-31
2023/08/12 10:45:09;;;;;;;4.10;3.70;;;28.40;99.90;;;;;;5083631;28;20020;-40
2023/08/12 10:47:39;;;;;;;4.45;3.53;;;28.50;99.90;;;;;;5084976;28;20032;-40
2023/08/12 10:50:06;;;;;;;4.88;3.38;;;28.40;99.90;;;;;;5084722;28;20497;-40
2023/08/12 10:52:33;;;;;;;3.60;3.30;;;28.40;99.90;;;;;;5079927;28;20028;-38
2023/08/12 10:55:23;;;;;;;4.63;2.97;;;28.10;99.90;;;;;;5086656;28;20064;-40
2023/08/12 10:57:52;;;;;;;4.10;3.50;;;27.90;99.90;;;;;;5084296;28;20541;-37
2023/08/12 11:00:21;;;;;;;6.50;3.38;;;27.70;99.90;;;;;;5081051;28;20504;-40
2023/08/12 11:02:50;;;;;;;8.13;3.97;;;27.60;99.90;;;;;;5087158;28;20052;-40
2023/08/12 11:05:18;;;;;;;4.35;3.50;;;27.40;99.90;;;;;;5083729;28;20704;-41
2023/08/12 11:07:51;;;;;;;3.60;3.30;;;27.40;99.90;;;;;;5085787;28;20078;-40
2023/08/12 11:10:21;;;;;;;3.50;3.20;;;27.60;99.90;;;;;;5085316;28;20154;-41
2023/08/12 11:12:52;;;;;;;3.78;3.45;;;27.80;99.90;;;;;;5085439;28;20036;-40
2023/08/12 11:15:22;;;;;;;3.47;3.17;;;27.70;99.90;;;;;;5081076;28;20024;-41
2023/08/12 11:17:47;;;;;;;6.45;3.17;;;27.90;99.90;;;;;;5077427;28;20032;-40
2023/08/12 11:20:13;;;;;;;3.20;3.00;;;28.40;99.90;;;;;;5085871;28;20043;-40
2023/08/12 11:22:43;;;;;;;6.18;3.58;;;28.80;99.90;;;;;;5084049;28;20032;-40
2023/08/12 11:25:11;;;;;;;4.72;3.28;;;29.30;99.90;;;;;;5080680;28;20388;-40
2023/08/12 11:27:41;;;;;;;3.75;3.40;;;29.30;99.90;;;;;;5080860;28;20111;-37
2023/08/12 11:30:10;;;;;;;3.60;3.30;;;28.90;99.90;;;;;;5080413;28;20035;-39
2023/08/12 11:32:37;;;;;;;3.58;3.25;;;29.00;99.90;;;;;;5077297;28;20032;-38
2023/08/12 11:35:03;;;;;;;4.30;3.55;;;29.10;99.90;;;;;;5086111;28;20032;-40
2023/08/12 11:37:29;;;;;;;4.45;3.35;;;29.40;99.90;;;;;;5082225;28;20050;-34
2023/08/12 11:39:55;;;;;;;3.85;3.55;;;29.60;99.90;;;;;;5055102;28;20485;-39
2023/08/12 11:42:20;;;;;;;3.47;3.20;;;29.10;99.90;;;;;;5079580;28;20070;-41
2023/08/12 11:44:46;;;;;;;3.50;3.20;;;28.80;99.90;;;;;;5084292;28;20472;-41
2023/08/12 11:47:12;;;;;;;4.47;3.65;;;28.40;99.90;;;;;;5081721;28;20066;-38
2023/08/12 11:49:37;;;;;;;6.00;3.50;;;28.30;99.90;;;;;;5082409;28;20024;-42
2023/08/12 11:52:04;;;;;;;3.45;3.15;;;28.30;99.90;;;;;;5072047;28;20362;-40
2023/08/12 11:54:30;;;;;;;3.78;3.33;;;28.30;99.90;;;;;;5083030;28;20097;-33
2023/08/12 11:56:57;;;;;;;3.60;3.10;;;28.40;99.90;;;;;;5084497;28;20127;-32
2023/08/12 11:59:22;;;;;;;3.80;3.17;;;28.50;99.90;;;;;;5084044;28;20124;-33
2023/08/12 12:01:51;;;;;;;3.90;3.33;;;28.40;99.90;;;;;;5081478;28;20549;-34
2023/08/12 12:04:20;;;;;;;3.60;3.20;;;28.50;99.90;;;;;;5068688;28;20478;-33
2023/08/12 12:06:46;;;;;;;3.50;3.20;;;28.50;99.90;;;;;;5085182;28;20594;-32
2023/08/12 12:09:13;;;;;;;4.22;3.25;;;28.60;99.90;;;;;;5082491;28;20737;-35
2023/08/12 12:11:39;;;;;;;;;;;28.70;99.90;;;;;;5082037;28;20028;-33
2023/08/12 12:14:07;;;;;;;3.90;3.42;;;28.70;99.90;;;;;;5080558;28;19911;-33
2023/08/12 12:16:40;;;;;;;;;;;28.80;99.90;;;;;;5068744;28;20036;-35
2023/08/12 12:19:08;;;;;;;5.28;3.38;;;28.90;99.90;;;;;;5081464;28;19958;-32
2023/08/12 12:21:41;;;;;;;4.15;3.20;;;28.90;99.90;;;;;;5085773;28;20055;-34
2023/08/12 12:24:08;;;;;;;3.50;3.20;;;28.90;99.90;;;;;;5085899;28;20078;-32
2023/08/12 12:26:35;;;;;;;4.27;2.90;;;28.90;99.90;;;;;;5090410;28;20093;-34
2023/08/12 12:29:01;;;;;;;3.20;2.90;;;29.10;99.90;;;;;;5082826;28;20035;-33
2023/08/12 12:31:27;;;;;;;4.72;3.10;;;29.10;99.90;;;;;;5080611;28;20044;-32
2023/08/12 12:33:52;;;;;;;5.50;3.33;;;29.20;99.90;;;;;;5085572;28;20557;-33
2023/08/12 12:36:18;;;;;;;3.42;3.10;;;29.40;99.90;;;;;;5084313;28;20477;-31
2023/08/12 12:38:43;;;;;;;3.45;3.15;;;29.60;99.90;;;;;;5084729;28;20090;-37
2023/08/12 12:41:09;;;;;;;3.63;3.25;;;29.80;99.90;;;;;;5070169;28;20081;-37
2023/08/12 12:43:34;;;;;;;4.68;3.22;;;30.20;99.90;;;;;;5086674;28;21272;-33